sensor_id;sensor_type;location;lat;lon;timestamp;P1;durP1;ratioP1;P2;durP2;ratioP2
41829;SDS011;38614;43.472;23.936;2023-03-01T00:02:39;19.27;;;9.75;;
41829;SDS011;38614;43.472;23.936;2023-03-01T00:05:26;18.92;;;9.82;;
41829;SDS011;38614;43.472;23.936;2023-03-01T00:08:16;19.42;;;10.50;;
41829;SDS011;38614;43.472;23.936;2023-03-01T00:14:04;18.52;;;9.80;;
41829;SDS011;38614;43.472;23.936;2023-03-01T00:16:53;17.75;;;9.50;;
41829;SDS011;38614;43.472;23.936;2023-03-01T00:19:41;17.50;;;9.18;;
41829;SDS011;38614;43.472;23.936;2023-03-01T00:22:31;14.95;;;8.10;;
41829;SDS011;38614;43.472;23.936;2023-03-01T00:25:19;14.25;;;9.18;;
41829;SDS011;38614;43.472;23.936;2023-03-01T00:28:06;18.00;;;10.10;;
41829;SDS011;38614;43.472;23.936;2023-03-01T00:30:54;19.08;;;10.90;;
41829;SDS011;38614;43.472;23.936;2023-03-01T00:33:45;14.10;;;9.75;;
41829;SDS011;38614;43.472;23.936;2023-03-01T00:36:34;20.67;;;10.82;;
41829;SDS011;38614;43.472;23.936;2023-03-01T00:39:24;19.08;;;9.68;;
41829;SDS011;38614;43.472;23.936;2023-03-01T00:42:12;19.88;;;10.20;;
41829;SDS011;38614;43.472;23.936;2023-03-01T00:44:59;21.00;;;10.38;;
41829;SDS011;38614;43.472;23.936;2023-03-01T00:47:48;17.35;;;9.23;;
41829;SDS011;38614;43.472;23.936;2023-03-01T00:50:36;20.95;;;9.98;;
41829;SDS011;38614;43.472;23.936;2023-03-01T00:53:24;21.08;;;11.07;;
41829;SDS011;38614;43.472;23.936;2023-03-01T00:56:12;20.92;;;10.55;;
41829;SDS011;38614;43.472;23.936;2023-03-01T00:59:03;19.48;;;11.10;;
41829;SDS011;38614;43.472;23.936;2023-03-01T01:01:50;20.13;;;11.02;;
41829;SDS011;38614;43.472;23.936;2023-03-01T01:04:38;18.73;;;10.23;;
41829;SDS011;38614;43.472;23.936;2023-03-01T01:07:26;16.27;;;9.98;;
41829;SDS011;38614;43.472;23.936;2023-03-01T01:10:14;17.08;;;8.90;;
41829;SDS011;38614;43.472;23.936;2023-03-01T01:13:04;15.90;;;9.60;;
41829;SDS011;38614;43.472;23.936;2023-03-01T01:15:51;15.18;;;9.65;;
41829;SDS011;38614;43.472;23.936;2023-03-01T01:18:39;17.33;;;10.45;;
41829;SDS011;38614;43.472;23.936;2023-03-01T01:21:27;19.23;;;10.18;;
41829;SDS011;38614;43.472;23.936;2023-03-01T01:24:16;26.98;;;11.88;;
41829;SDS011;38614;43.472;23.936;2023-03-01T01:27:04;14.85;;;8.98;;
41829;SDS011;38614;43.472;23.936;2023-03-01T01:29:54;19.00;;;11.20;;
41829;SDS011;38614;43.472;23.936;2023-03-01T01:32:42;17.27;;;10.30;;
41829;SDS011;38614;43.472;23.936;2023-03-01T01:35:29;20.33;;;10.38;;
41829;SDS011;38614;43.472;23.936;2023-03-01T01:38:17;18.90;;;10.63;;
41829;SDS011;38614;43.472;23.936;2023-03-01T01:41:07;16.73;;;10.00;;
41829;SDS011;38614;43.472;23.936;2023-03-01T01:47:02;16.63;;;9.02;;
41829;SDS011;38614;43.472;23.936;2023-03-01T01:49:53;16.58;;;9.43;;
41829;SDS011;38614;43.472;23.936;2023-03-01T01:52:43;12.65;;;8.60;;
41829;SDS011;38614;43.472;23.936;2023-03-01T01:55:33;17.13;;;8.50;;
41829;SDS011;38614;43.472;23.936;2023-03-01T01:58:24;17.80;;;8.07;;
41829;SDS011;38614;43.472;23.936;2023-03-01T02:01:17;16.35;;;8.25;;
41829;SDS011;38614;43.472;23.936;2023-03-01T02:04:04;16.23;;;8.85;;
41829;SDS011;38614;43.472;23.936;2023-03-01T02:07:07;17.75;;;8.57;;
41829;SDS011;38614;43.472;23.936;2023-03-01T02:10:02;15.15;;;9.68;;
41829;SDS011;38614;43.472;23.936;2023-03-01T02:12:50;12.88;;;8.25;;
41829;SDS011;38614;43.472;23.936;2023-03-01T02:15:39;16.67;;;9.45;;
41829;SDS011;38614;43.472;23.936;2023-03-01T02:18:29;15.93;;;9.63;;
41829;SDS011;38614;43.472;23.936;2023-03-01T02:21:26;17.58;;;9.43;;
41829;SDS011;38614;43.472;23.936;2023-03-01T02:27:22;17.10;;;10.63;;
41829;SDS011;38614;43.472;23.936;2023-03-01T02:30:19;15.38;;;8.52;;
41829;SDS011;38614;43.472;23.936;2023-03-01T02:33:09;15.05;;;9.43;;
41829;SDS011;38614;43.472;23.936;2023-03-01T02:35:57;13.43;;;7.40;;
41829;SDS011;38614;43.472;23.936;2023-03-01T02:38:47;14.50;;;7.82;;
41829;SDS011;38614;43.472;23.936;2023-03-01T02:41:38;14.50;;;8.68;;
41829;SDS011;38614;43.472;23.936;2023-03-01T02:44:28;12.25;;;7.10;;
41829;SDS011;38614;43.472;23.936;2023-03-01T02:47:15;12.30;;;7.57;;
41829;SDS011;38614;43.472;23.936;2023-03-01T02:50:09;15.75;;;8.50;;
41829;SDS011;38614;43.472;23.936;2023-03-01T02:56:02;17.02;;;7.50;;
41829;SDS011;38614;43.472;23.936;2023-03-01T02:58:50;10.80;;;6.25;;
41829;SDS011;38614;43.472;23.936;2023-03-01T03:01:39;10.43;;;6.53;;
41829;SDS011;38614;43.472;23.936;2023-03-01T03:04:27;14.07;;;7.45;;
41829;SDS011;38614;43.472;23.936;2023-03-01T03:07:15;12.15;;;7.47;;
41829;SDS011;38614;43.472;23.936;2023-03-01T03:10:04;21.45;;;11.82;;
41829;SDS011;38614;43.472;23.936;2023-03-01T03:12:54;18.08;;;10.80;;
41829;SDS011;38614;43.472;23.936;2023-03-01T03:15:44;14.10;;;8.68;;
41829;SDS011;38614;43.472;23.936;2023-03-01T03:18:32;16.80;;;10.25;;
41829;SDS011;38614;43.472;23.936;2023-03-01T03:21:20;15.20;;;8.80;;
41829;SDS011;38614;43.472;23.936;2023-03-01T03:24:07;12.73;;;8.07;;
41829;SDS011;38614;43.472;23.936;2023-03-01T03:26:55;14.98;;;8.02;;
41829;SDS011;38614;43.472;23.936;2023-03-01T03:29:43;12.32;;;7.75;;
41829;SDS011;38614;43.472;23.936;2023-03-01T03:32:31;18.33;;;8.90;;
41829;SDS011;38614;43.472;23.936;2023-03-01T03:35:26;11.75;;;7.57;;
41829;SDS011;38614;43.472;23.936;2023-03-01T03:38:18;10.38;;;6.70;;
41829;SDS011;38614;43.472;23.936;2023-03-01T03:41:09;10.85;;;7.75;;
41829;SDS011;38614;43.472;23.936;2023-03-01T03:43:57;11.07;;;7.13;;
41829;SDS011;38614;43.472;23.936;2023-03-01T03:46:44;9.40;;;5.97;;
41829;SDS011;38614;43.472;23.936;2023-03-01T03:49:34;12.38;;;6.93;;
41829;SDS011;38614;43.472;23.936;2023-03-01T03:52:22;11.60;;;7.72;;
41829;SDS011;38614;43.472;23.936;2023-03-01T03:55:10;16.17;;;8.45;;
41829;SDS011;38614;43.472;23.936;2023-03-01T03:58:07;10.65;;;6.43;;
41829;SDS011;38614;43.472;23.936;2023-03-01T04:00:56;15.30;;;8.73;;
41829;SDS011;38614;43.472;23.936;2023-03-01T04:04:03;10.48;;;6.65;;
41829;SDS011;38614;43.472;23.936;2023-03-01T04:06:51;22.95;;;11.18;;
41829;SDS011;38614;43.472;23.936;2023-03-01T04:09:38;15.27;;;9.45;;
41829;SDS011;38614;43.472;23.936;2023-03-01T04:12:27;10.43;;;6.85;;
41829;SDS011;38614;43.472;23.936;2023-03-01T04:15:17;14.95;;;7.57;;
41829;SDS011;38614;43.472;23.936;2023-03-01T04:18:06;7.28;;;6.25;;
41829;SDS011;38614;43.472;23.936;2023-03-01T04:20:56;11.93;;;6.70;;
41829;SDS011;38614;43.472;23.936;2023-03-01T04:23:44;14.82;;;10.20;;
41829;SDS011;38614;43.472;23.936;2023-03-01T04:26:32;16.15;;;10.25;;
41829;SDS011;38614;43.472;23.936;2023-03-01T04:29:19;11.75;;;6.60;;
41829;SDS011;38614;43.472;23.936;2023-03-01T04:32:07;10.90;;;7.50;;
41829;SDS011;38614;43.472;23.936;2023-03-01T04:34:55;14.52;;;9.85;;
41829;SDS011;38614;43.472;23.936;2023-03-01T04:37:43;13.32;;;9.27;;
41829;SDS011;38614;43.472;23.936;2023-03-01T04:40:32;17.27;;;9.23;;
41829;SDS011;38614;43.472;23.936;2023-03-01T04:43:20;14.65;;;8.60;;
41829;SDS011;38614;43.472;23.936;2023-03-01T04:46:09;15.75;;;10.07;;
41829;SDS011;38614;43.472;23.936;2023-03-01T04:49:02;13.63;;;8.00;;
41829;SDS011;38614;43.472;23.936;2023-03-01T04:51:50;21.92;;;12.05;;
41829;SDS011;38614;43.472;23.936;2023-03-01T04:54:38;17.48;;;9.52;;
41829;SDS011;38614;43.472;23.936;2023-03-01T04:57:26;11.82;;;7.38;;
41829;SDS011;38614;43.472;23.936;2023-03-01T05:00:13;14.93;;;8.18;;
41829;SDS011;38614;43.472;23.936;2023-03-01T05:03:08;9.73;;;6.63;;
41829;SDS011;38614;43.472;23.936;2023-03-01T05:05:58;12.88;;;8.18;;
41829;SDS011;38614;43.472;23.936;2023-03-01T05:08:46;13.95;;;8.00;;
41829;SDS011;38614;43.472;23.936;2023-03-01T05:11:34;12.68;;;6.80;;
41829;SDS011;38614;43.472;23.936;2023-03-01T05:14:23;10.30;;;7.03;;
41829;SDS011;38614;43.472;23.936;2023-03-01T05:17:10;14.07;;;7.68;;
41829;SDS011;38614;43.472;23.936;2023-03-01T05:19:58;12.07;;;7.35;;
41829;SDS011;38614;43.472;23.936;2023-03-01T05:22:46;14.25;;;8.32;;
41829;SDS011;38614;43.472;23.936;2023-03-01T05:25:34;14.82;;;7.90;;
41829;SDS011;38614;43.472;23.936;2023-03-01T05:28:27;11.52;;;6.22;;
41829;SDS011;38614;43.472;23.936;2023-03-01T05:31:15;22.20;;;9.82;;
41829;SDS011;38614;43.472;23.936;2023-03-01T05:34:03;13.48;;;8.25;;
41829;SDS011;38614;43.472;23.936;2023-03-01T05:36:52;15.18;;;8.80;;
41829;SDS011;38614;43.472;23.936;2023-03-01T05:39:40;15.10;;;9.00;;
41829;SDS011;38614;43.472;23.936;2023-03-01T05:42:29;17.70;;;10.65;;
41829;SDS011;38614;43.472;23.936;2023-03-01T05:45:17;83.75;;;31.85;;
41829;SDS011;38614;43.472;23.936;2023-03-01T05:48:05;21.60;;;10.98;;
41829;SDS011;38614;43.472;23.936;2023-03-01T05:50:54;17.02;;;9.02;;
41829;SDS011;38614;43.472;23.936;2023-03-01T05:53:42;31.40;;;13.32;;
41829;SDS011;38614;43.472;23.936;2023-03-01T05:56:30;24.10;;;11.13;;
41829;SDS011;38614;43.472;23.936;2023-03-01T05:59:24;29.70;;;15.30;;
41829;SDS011;38614;43.472;23.936;2023-03-01T06:02:12;60.60;;;24.83;;
41829;SDS011;38614;43.472;23.936;2023-03-01T06:04:59;41.90;;;20.15;;
41829;SDS011;38614;43.472;23.936;2023-03-01T06:07:48;54.85;;;25.35;;
41829;SDS011;38614;43.472;23.936;2023-03-01T06:10:37;108.40;;;49.55;;
41829;SDS011;38614;43.472;23.936;2023-03-01T06:13:25;68.53;;;31.67;;
41829;SDS011;38614;43.472;23.936;2023-03-01T06:16:13;31.85;;;10.82;;
41829;SDS011;38614;43.472;23.936;2023-03-01T06:19:01;32.97;;;18.33;;
41829;SDS011;38614;43.472;23.936;2023-03-01T06:21:49;31.80;;;14.10;;
41829;SDS011;38614;43.472;23.936;2023-03-01T06:24:37;59.25;;;24.65;;
41829;SDS011;38614;43.472;23.936;2023-03-01T06:27:25;25.77;;;12.30;;
41829;SDS011;38614;43.472;23.936;2023-03-01T06:30:14;18.52;;;8.98;;
41829;SDS011;38614;43.472;23.936;2023-03-01T06:33:03;32.03;;;14.70;;
41829;SDS011;38614;43.472;23.936;2023-03-01T06:35:51;35.22;;;17.73;;
41829;SDS011;38614;43.472;23.936;2023-03-01T06:38:41;15.80;;;9.20;;
41829;SDS011;38614;43.472;23.936;2023-03-01T06:41:30;22.63;;;11.93;;
41829;SDS011;38614;43.472;23.936;2023-03-01T06:44:18;24.38;;;12.35;;
41829;SDS011;38614;43.472;23.936;2023-03-01T06:47:06;19.35;;;10.95;;
41829;SDS011;38614;43.472;23.936;2023-03-01T06:49:53;18.10;;;8.98;;
41829;SDS011;38614;43.472;23.936;2023-03-01T06:52:41;14.25;;;7.82;;
41829;SDS011;38614;43.472;23.936;2023-03-01T06:55:31;19.17;;;9.30;;
41829;SDS011;38614;43.472;23.936;2023-03-01T06:58:19;19.00;;;9.48;;
41829;SDS011;38614;43.472;23.936;2023-03-01T07:01:07;14.65;;;9.15;;
41829;SDS011;38614;43.472;23.936;2023-03-01T07:03:56;19.70;;;11.52;;
41829;SDS011;38614;43.472;23.936;2023-03-01T07:06:44;17.30;;;9.15;;
41829;SDS011;38614;43.472;23.936;2023-03-01T07:09:31;11.07;;;7.25;;
41829;SDS011;38614;43.472;23.936;2023-03-01T07:12:19;13.10;;;8.68;;
41829;SDS011;38614;43.472;23.936;2023-03-01T07:15:09;15.07;;;9.07;;
41829;SDS011;38614;43.472;23.936;2023-03-01T07:17:58;19.48;;;10.68;;
41829;SDS011;38614;43.472;23.936;2023-03-01T07:20:45;18.42;;;9.65;;
41829;SDS011;38614;43.472;23.936;2023-03-01T07:23:33;15.35;;;8.48;;
41829;SDS011;38614;43.472;23.936;2023-03-01T07:26:21;13.57;;;7.75;;
41829;SDS011;38614;43.472;23.936;2023-03-01T07:29:12;11.90;;;5.93;;
41829;SDS011;38614;43.472;23.936;2023-03-01T07:32:00;12.82;;;7.10;;
41829;SDS011;38614;43.472;23.936;2023-03-01T07:34:48;16.52;;;8.20;;
41829;SDS011;38614;43.472;23.936;2023-03-01T07:37:36;14.93;;;8.75;;
41829;SDS011;38614;43.472;23.936;2023-03-01T07:40:23;19.77;;;10.45;;
41829;SDS011;38614;43.472;23.936;2023-03-01T07:43:11;23.38;;;9.95;;
41829;SDS011;38614;43.472;23.936;2023-03-01T07:46:01;15.77;;;9.75;;
41829;SDS011;38614;43.472;23.936;2023-03-01T07:48:50;18.42;;;8.63;;
41829;SDS011;38614;43.472;23.936;2023-03-01T07:51:37;14.10;;;8.50;;
41829;SDS011;38614;43.472;23.936;2023-03-01T07:54:25;13.55;;;8.10;;
41829;SDS011;38614;43.472;23.936;2023-03-01T07:57:13;20.73;;;11.38;;
41829;SDS011;38614;43.472;23.936;2023-03-01T08:00:01;16.08;;;9.18;;
41829;SDS011;38614;43.472;23.936;2023-03-01T08:03:00;17.73;;;11.07;;
41829;SDS011;38614;43.472;23.936;2023-03-01T08:05:48;19.60;;;11.40;;
41829;SDS011;38614;43.472;23.936;2023-03-01T08:08:36;21.77;;;10.73;;
41829;SDS011;38614;43.472;23.936;2023-03-01T08:11:24;19.60;;;10.23;;
41829;SDS011;38614;43.472;23.936;2023-03-01T08:14:12;32.08;;;18.25;;
41829;SDS011;38614;43.472;23.936;2023-03-01T08:17:00;26.25;;;14.25;;
41829;SDS011;38614;43.472;23.936;2023-03-01T08:19:50;35.45;;;15.98;;
41829;SDS011;38614;43.472;23.936;2023-03-01T08:22:37;27.13;;;13.63;;
41829;SDS011;38614;43.472;23.936;2023-03-01T08:25:25;19.83;;;10.70;;
41829;SDS011;38614;43.472;23.936;2023-03-01T08:28:13;19.90;;;10.05;;
41829;SDS011;38614;43.472;23.936;2023-03-01T08:31:00;21.33;;;11.70;;
41829;SDS011;38614;43.472;23.936;2023-03-01T08:33:49;30.75;;;14.13;;
41829;SDS011;38614;43.472;23.936;2023-03-01T08:36:43;30.05;;;15.55;;
41829;SDS011;38614;43.472;23.936;2023-03-01T08:39:32;22.98;;;11.27;;
41829;SDS011;38614;43.472;23.936;2023-03-01T08:42:20;23.48;;;11.45;;
41829;SDS011;38614;43.472;23.936;2023-03-01T08:45:08;33.13;;;15.68;;
41829;SDS011;38614;43.472;23.936;2023-03-01T08:47:57;27.05;;;15.68;;
41829;SDS011;38614;43.472;23.936;2023-03-01T08:50:45;21.25;;;11.00;;
41829;SDS011;38614;43.472;23.936;2023-03-01T08:53:33;20.63;;;10.93;;
41829;SDS011;38614;43.472;23.936;2023-03-01T08:56:21;20.30;;;10.48;;
41829;SDS011;38614;43.472;23.936;2023-03-01T08:59:09;25.38;;;11.52;;
41829;SDS011;38614;43.472;23.936;2023-03-01T09:04:49;22.30;;;12.35;;
41829;SDS011;38614;43.472;23.936;2023-03-01T09:07:37;18.42;;;10.13;;
41829;SDS011;38614;43.472;23.936;2023-03-01T09:10:24;27.85;;;12.30;;
41829;SDS011;38614;43.472;23.936;2023-03-01T09:13:12;20.92;;;10.52;;
41829;SDS011;38614;43.472;23.936;2023-03-01T09:16:00;20.70;;;9.60;;
41829;SDS011;38614;43.472;23.936;2023-03-01T09:18:53;24.73;;;12.40;;
41829;SDS011;38614;43.472;23.936;2023-03-01T09:21:42;20.27;;;10.77;;
41829;SDS011;38614;43.472;23.936;2023-03-01T09:24:39;18.65;;;11.00;;
41829;SDS011;38614;43.472;23.936;2023-03-01T09:27:27;14.27;;;8.52;;
41829;SDS011;38614;43.472;23.936;2023-03-01T09:30:16;21.23;;;11.18;;
41829;SDS011;38614;43.472;23.936;2023-03-01T09:33:04;23.77;;;13.68;;
41829;SDS011;38614;43.472;23.936;2023-03-01T09:35:56;18.45;;;9.93;;
41829;SDS011;38614;43.472;23.936;2023-03-01T09:38:45;20.27;;;11.35;;
41829;SDS011;38614;43.472;23.936;2023-03-01T09:44:36;24.00;;;11.75;;
41829;SDS011;38614;43.472;23.936;2023-03-01T09:47:35;23.95;;;12.82;;
41829;SDS011;38614;43.472;23.936;2023-03-01T09:50:31;22.33;;;11.23;;
41829;SDS011;38614;43.472;23.936;2023-03-01T09:53:33;22.48;;;11.77;;
41829;SDS011;38614;43.472;23.936;2023-03-01T09:56:32;23.63;;;11.50;;
41829;SDS011;38614;43.472;23.936;2023-03-01T09:59:27;24.52;;;11.55;;
41829;SDS011;38614;43.472;23.936;2023-03-01T10:02:26;24.88;;;12.65;;
41829;SDS011;38614;43.472;23.936;2023-03-01T10:08:51;27.35;;;12.75;;
41829;SDS011;38614;43.472;23.936;2023-03-01T10:14:57;28.85;;;12.90;;
41829;SDS011;38614;43.472;23.936;2023-03-01T10:18:16;21.80;;;10.95;;
41829;SDS011;38614;43.472;23.936;2023-03-01T10:21:18;21.38;;;12.60;;
41829;SDS011;38614;43.472;23.936;2023-03-01T10:24:10;21.65;;;10.35;;
41829;SDS011;38614;43.472;23.936;2023-03-01T10:27:04;18.50;;;10.35;;
41829;SDS011;38614;43.472;23.936;2023-03-01T10:32:54;29.60;;;14.48;;
41829;SDS011;38614;43.472;23.936;2023-03-01T10:35:41;14.85;;;9.65;;
41829;SDS011;38614;43.472;23.936;2023-03-01T10:38:46;17.83;;;10.02;;
41829;SDS011;38614;43.472;23.936;2023-03-01T10:44:49;23.42;;;10.02;;
41829;SDS011;38614;43.472;23.936;2023-03-01T10:47:37;20.23;;;10.27;;
41829;SDS011;38614;43.472;23.936;2023-03-01T10:50:25;22.77;;;9.82;;
41829;SDS011;38614;43.472;23.936;2023-03-01T10:56:18;17.52;;;10.07;;
41829;SDS011;38614;43.472;23.936;2023-03-01T10:59:09;27.05;;;14.15;;
41829;SDS011;38614;43.472;23.936;2023-03-01T11:05:22;44.80;;;14.93;;
41829;SDS011;38614;43.472;23.936;2023-03-01T11:08:11;24.52;;;12.00;;
41829;SDS011;38614;43.472;23.936;2023-03-01T11:11:19;35.67;;;12.77;;
41829;SDS011;38614;43.472;23.936;2023-03-01T11:14:21;28.97;;;12.20;;
41829;SDS011;38614;43.472;23.936;2023-03-01T11:17:23;26.45;;;12.82;;
41829;SDS011;38614;43.472;23.936;2023-03-01T11:20:22;16.88;;;9.77;;
41829;SDS011;38614;43.472;23.936;2023-03-01T11:23:18;18.40;;;8.65;;
41829;SDS011;38614;43.472;23.936;2023-03-01T11:26:07;19.73;;;9.02;;
41829;SDS011;38614;43.472;23.936;2023-03-01T11:29:00;21.17;;;10.02;;
41829;SDS011;38614;43.472;23.936;2023-03-01T11:31:52;19.50;;;9.90;;
41829;SDS011;38614;43.472;23.936;2023-03-01T11:34:49;19.98;;;10.52;;
41829;SDS011;38614;43.472;23.936;2023-03-01T11:43:51;18.90;;;10.18;;
41829;SDS011;38614;43.472;23.936;2023-03-01T11:59:45;22.05;;;10.77;;
41829;SDS011;38614;43.472;23.936;2023-03-01T12:12:01;22.13;;;10.95;;
41829;SDS011;38614;43.472;23.936;2023-03-01T12:21:05;37.15;;;16.67;;
41829;SDS011;38614;43.472;23.936;2023-03-01T12:26:57;20.60;;;10.25;;
41829;SDS011;38614;43.472;23.936;2023-03-01T12:30:09;30.35;;;11.85;;
41829;SDS011;38614;43.472;23.936;2023-03-01T12:42:57;28.20;;;13.55;;
41829;SDS011;38614;43.472;23.936;2023-03-01T12:52:09;20.98;;;11.15;;
41829;SDS011;38614;43.472;23.936;2023-03-01T12:55:31;24.60;;;11.90;;
41829;SDS011;38614;43.472;23.936;2023-03-01T13:02:23;30.33;;;12.93;;
41829;SDS011;38614;43.472;23.936;2023-03-01T13:05:14;46.88;;;22.67;;
41829;SDS011;38614;43.472;23.936;2023-03-01T13:11:17;31.17;;;16.15;;
41829;SDS011;38614;43.472;23.936;2023-03-01T13:17:20;21.92;;;11.77;;
41829;SDS011;38614;43.472;23.936;2023-03-01T13:20:20;22.08;;;11.10;;
41829;SDS011;38614;43.472;23.936;2023-03-01T13:29:03;25.00;;;13.88;;
41829;SDS011;38614;43.472;23.936;2023-03-01T13:34:42;24.17;;;11.50;;
41829;SDS011;38614;43.472;23.936;2023-03-01T13:37:33;27.02;;;15.02;;
41829;SDS011;38614;43.472;23.936;2023-03-01T13:43:27;20.98;;;11.55;;
41829;SDS011;38614;43.472;23.936;2023-03-01T13:46:20;16.00;;;10.20;;
41829;SDS011;38614;43.472;23.936;2023-03-01T13:49:11;18.42;;;10.32;;
41829;SDS011;38614;43.472;23.936;2023-03-01T13:52:03;24.33;;;12.00;;
41829;SDS011;38614;43.472;23.936;2023-03-01T13:54:52;24.13;;;12.43;;
41829;SDS011;38614;43.472;23.936;2023-03-01T13:57:41;20.52;;;12.15;;
41829;SDS011;38614;43.472;23.936;2023-03-01T14:00:37;48.40;;;21.52;;
41829;SDS011;38614;43.472;23.936;2023-03-01T14:06:15;42.83;;;22.88;;
41829;SDS011;38614;43.472;23.936;2023-03-01T14:21:13;34.45;;;15.90;;
41829;SDS011;38614;43.472;23.936;2023-03-01T14:24:03;30.55;;;15.57;;
41829;SDS011;38614;43.472;23.936;2023-03-01T14:26:51;35.53;;;19.33;;
41829;SDS011;38614;43.472;23.936;2023-03-01T14:29:39;30.88;;;14.20;;
41829;SDS011;38614;43.472;23.936;2023-03-01T14:32:28;46.83;;;19.25;;
41829;SDS011;38614;43.472;23.936;2023-03-01T14:35:22;46.45;;;21.48;;
41829;SDS011;38614;43.472;23.936;2023-03-01T14:38:31;44.05;;;19.88;;
41829;SDS011;38614;43.472;23.936;2023-03-01T14:41:24;199.48;;;55.20;;
41829;SDS011;38614;43.472;23.936;2023-03-01T14:44:16;235.43;;;70.80;;
41829;SDS011;38614;43.472;23.936;2023-03-01T14:47:11;85.57;;;29.70;;
41829;SDS011;38614;43.472;23.936;2023-03-01T14:53:00;29.05;;;13.75;;
41829;SDS011;38614;43.472;23.936;2023-03-01T14:56:00;124.35;;;39.40;;
41829;SDS011;38614;43.472;23.936;2023-03-01T14:58:53;52.33;;;24.13;;
41829;SDS011;38614;43.472;23.936;2023-03-01T15:01:46;34.97;;;16.85;;
41829;SDS011;38614;43.472;23.936;2023-03-01T15:04:35;23.83;;;9.85;;
41829;SDS011;38614;43.472;23.936;2023-03-01T15:07:26;28.42;;;14.38;;
41829;SDS011;38614;43.472;23.936;2023-03-01T15:10:23;25.20;;;12.15;;
41829;SDS011;38614;43.472;23.936;2023-03-01T15:13:14;42.58;;;23.02;;
41829;SDS011;38614;43.472;23.936;2023-03-01T15:16:12;22.88;;;12.55;;
41829;SDS011;38614;43.472;23.936;2023-03-01T15:19:04;20.37;;;11.77;;
41829;SDS011;38614;43.472;23.936;2023-03-01T15:21:54;20.73;;;10.40;;
41829;SDS011;38614;43.472;23.936;2023-03-01T15:24:46;18.80;;;8.63;;
41829;SDS011;38614;43.472;23.936;2023-03-01T15:27:36;18.13;;;10.05;;
41829;SDS011;38614;43.472;23.936;2023-03-01T15:30:31;23.25;;;11.57;;
41829;SDS011;38614;43.472;23.936;2023-03-01T15:36:36;28.05;;;12.15;;
41829;SDS011;38614;43.472;23.936;2023-03-01T15:48:04;35.25;;;16.40;;
41829;SDS011;38614;43.472;23.936;2023-03-01T15:51:02;46.78;;;22.65;;
41829;SDS011;38614;43.472;23.936;2023-03-01T15:53:50;25.02;;;14.13;;
41829;SDS011;38614;43.472;23.936;2023-03-01T15:56:40;32.40;;;18.60;;
41829;SDS011;38614;43.472;23.936;2023-03-01T15:59:31;32.80;;;15.02;;
41829;SDS011;38614;43.472;23.936;2023-03-01T16:02:19;24.95;;;11.68;;
41829;SDS011;38614;43.472;23.936;2023-03-01T16:05:22;22.55;;;12.00;;
41829;SDS011;38614;43.472;23.936;2023-03-01T16:08:15;35.28;;;14.52;;
41829;SDS011;38614;43.472;23.936;2023-03-01T16:11:09;26.85;;;13.18;;
41829;SDS011;38614;43.472;23.936;2023-03-01T16:14:02;28.00;;;12.15;;
41829;SDS011;38614;43.472;23.936;2023-03-01T16:16:50;24.90;;;12.93;;
41829;SDS011;38614;43.472;23.936;2023-03-01T16:19:38;21.70;;;10.63;;
41829;SDS011;38614;43.472;23.936;2023-03-01T16:22:28;23.38;;;11.70;;
41829;SDS011;38614;43.472;23.936;2023-03-01T16:25:16;40.83;;;19.75;;
41829;SDS011;38614;43.472;23.936;2023-03-01T16:28:05;40.05;;;22.60;;
41829;SDS011;38614;43.472;23.936;2023-03-01T16:30:57;49.63;;;26.98;;
41829;SDS011;38614;43.472;23.936;2023-03-01T16:33:44;28.02;;;14.93;;
41829;SDS011;38614;43.472;23.936;2023-03-01T16:36:36;48.03;;;25.38;;
41829;SDS011;38614;43.472;23.936;2023-03-01T16:39:24;41.60;;;19.10;;
41829;SDS011;38614;43.472;23.936;2023-03-01T16:42:12;37.05;;;17.65;;
41829;SDS011;38614;43.472;23.936;2023-03-01T16:45:00;40.22;;;16.70;;
41829;SDS011;38614;43.472;23.936;2023-03-01T16:47:54;24.02;;;13.40;;
41829;SDS011;38614;43.472;23.936;2023-03-01T16:50:42;26.33;;;14.02;;
41829;SDS011;38614;43.472;23.936;2023-03-01T16:53:30;23.65;;;13.23;;
41829;SDS011;38614;43.472;23.936;2023-03-01T16:56:27;132.63;;;55.95;;
41829;SDS011;38614;43.472;23.936;2023-03-01T17:02:17;43.13;;;22.08;;
41829;SDS011;38614;43.472;23.936;2023-03-01T17:05:07;36.70;;;21.17;;
41829;SDS011;38614;43.472;23.936;2023-03-01T17:07:56;57.20;;;27.95;;
41829;SDS011;38614;43.472;23.936;2023-03-01T17:10:44;45.83;;;19.38;;
41829;SDS011;38614;43.472;23.936;2023-03-01T17:13:32;41.75;;;19.35;;
41829;SDS011;38614;43.472;23.936;2023-03-01T17:16:21;66.00;;;23.92;;
41829;SDS011;38614;43.472;23.936;2023-03-01T17:19:09;46.08;;;19.42;;
41829;SDS011;38614;43.472;23.936;2023-03-01T17:21:57;31.45;;;16.33;;
41829;SDS011;38614;43.472;23.936;2023-03-01T17:24:51;32.38;;;15.52;;
41829;SDS011;38614;43.472;23.936;2023-03-01T17:27:39;33.88;;;15.15;;
41829;SDS011;38614;43.472;23.936;2023-03-01T17:30:27;30.67;;;16.25;;
41829;SDS011;38614;43.472;23.936;2023-03-01T17:33:15;31.73;;;15.43;;
41829;SDS011;38614;43.472;23.936;2023-03-01T17:36:04;34.30;;;16.05;;
41829;SDS011;38614;43.472;23.936;2023-03-01T17:38:52;37.45;;;18.33;;
41829;SDS011;38614;43.472;23.936;2023-03-01T17:41:40;49.97;;;21.33;;
41829;SDS011;38614;43.472;23.936;2023-03-01T17:44:28;39.33;;;19.05;;
41829;SDS011;38614;43.472;23.936;2023-03-01T17:47:17;34.97;;;15.70;;
41829;SDS011;38614;43.472;23.936;2023-03-01T17:50:04;35.67;;;15.02;;
41829;SDS011;38614;43.472;23.936;2023-03-01T17:52:54;38.22;;;15.88;;
41829;SDS011;38614;43.472;23.936;2023-03-01T17:55:44;32.30;;;14.50;;
41829;SDS011;38614;43.472;23.936;2023-03-01T17:58:34;35.75;;;16.10;;
41829;SDS011;38614;43.472;23.936;2023-03-01T18:01:22;29.25;;;14.60;;
41829;SDS011;38614;43.472;23.936;2023-03-01T18:04:11;36.58;;;17.67;;
41829;SDS011;38614;43.472;23.936;2023-03-01T18:06:59;29.13;;;14.10;;
41829;SDS011;38614;43.472;23.936;2023-03-01T18:09:47;33.58;;;14.45;;
41829;SDS011;38614;43.472;23.936;2023-03-01T18:12:34;37.53;;;15.90;;
41829;SDS011;38614;43.472;23.936;2023-03-01T18:15:22;40.13;;;16.85;;
41829;SDS011;38614;43.472;23.936;2023-03-01T18:18:10;36.25;;;15.50;;
41829;SDS011;38614;43.472;23.936;2023-03-01T18:20:58;40.10;;;14.80;;
41829;SDS011;38614;43.472;23.936;2023-03-01T18:23:49;42.15;;;17.17;;
41829;SDS011;38614;43.472;23.936;2023-03-01T18:26:37;33.88;;;16.40;;
41829;SDS011;38614;43.472;23.936;2023-03-01T18:29:26;42.03;;;18.67;;
41829;SDS011;38614;43.472;23.936;2023-03-01T18:32:14;36.22;;;18.42;;
41829;SDS011;38614;43.472;23.936;2023-03-01T18:35:02;37.72;;;15.23;;
41829;SDS011;38614;43.472;23.936;2023-03-01T18:37:52;37.88;;;16.25;;
41829;SDS011;38614;43.472;23.936;2023-03-01T18:40:43;50.78;;;16.50;;
41829;SDS011;38614;43.472;23.936;2023-03-01T18:43:31;40.33;;;18.10;;
41829;SDS011;38614;43.472;23.936;2023-03-01T18:46:19;40.60;;;17.02;;
41829;SDS011;38614;43.472;23.936;2023-03-01T18:49:09;43.78;;;17.85;;
41829;SDS011;38614;43.472;23.936;2023-03-01T18:52:00;52.15;;;19.73;;
41829;SDS011;38614;43.472;23.936;2023-03-01T18:54:48;51.20;;;19.70;;